createdAt,value
2023-12-08T00:00:30.105Z,95.81
2023-12-08T00:02:57.012Z,95.29
2023-12-08T00:05:23.904Z,96.08
2023-12-08T00:07:50.954Z,95.25
2023-12-08T00:10:18.025Z,95.05
2023-12-08T00:12:45.926Z,95.47
2023-12-08T00:15:13.136Z,95.35
2023-12-08T00:17:40.077Z,94.93
2023-12-08T00:20:08.214Z,94.86
2023-12-08T00:22:35.208Z,94.98
2023-12-08T00:25:02.052Z,94.98
2023-12-08T00:27:29.174Z,93.85
2023-12-08T00:29:56.046Z,93.75
2023-12-08T00:32:23.048Z,93.55
2023-12-08T00:34:49.882Z,93.31
2023-12-08T00:37:16.861Z,93.94
2023-12-08T00:39:43.823Z,94.51
2023-12-08T00:42:10.728Z,94.65
2023-12-08T00:44:37.582Z,95.00
2023-12-08T00:47:05.678Z,94.94
2023-12-08T00:49:32.817Z,95.50
2023-12-08T00:51:59.745Z,95.94
2023-12-08T00:54:26.574Z,96.21
2023-12-08T00:56:53.392Z,96.43
2023-12-08T00:59:20.364Z,95.77
2023-12-08T01:01:47.313Z,96.14
2023-12-08T01:04:14.364Z,96.32
2023-12-08T01:06:41.498Z,95.61
2023-12-08T01:09:08.511Z,95.74
2023-12-08T01:11:35.456Z,95.01
2023-12-08T01:14:02.470Z,93.94
2023-12-08T01:16:30.845Z,93.76
2023-12-08T01:18:57.789Z,94.81
2023-12-08T01:21:24.609Z,95.35
2023-12-08T01:23:51.510Z,94.88
2023-12-08T01:26:18.426Z,95.16
2023-12-08T01:28:45.703Z,95.20
2023-12-08T01:31:13.329Z,95.43
2023-12-08T01:33:40.420Z,94.88
2023-12-08T01:36:38.673Z,95.18
2023-12-08T01:38:54.612Z,95.85
2023-12-08T01:41:22.170Z,96.79
2023-12-08T01:43:49.025Z,97.54
2023-12-08T01:46:18.876Z,97.40
2023-12-08T01:48:47.827Z,97.75
2023-12-08T01:51:17.466Z,98.54
2023-12-08T01:53:46.228Z,98.43
2023-12-08T01:56:14.755Z,98.53
2023-12-08T01:58:43.408Z,98.39
2023-12-08T02:01:12.034Z,98.32
2023-12-08T02:03:41.198Z,98.82
2023-12-08T02:06:09.104Z,98.98
2023-12-08T02:08:36.805Z,98.85
2023-12-08T02:11:03.887Z,98.55
2023-12-08T02:13:31.445Z,98.81
2023-12-08T02:16:34.756Z,98.19
2023-12-08T02:19:04.520Z,97.72
2023-12-08T02:21:32.852Z,98.17
2023-12-08T02:23:59.853Z,98.75
2023-12-08T02:26:27.340Z,98.88
2023-12-08T02:28:54.915Z,98.81
2023-12-08T02:31:35.460Z,98.42
2023-12-08T02:34:05.231Z,98.24
2023-12-08T02:36:35.102Z,97.34
2023-12-08T02:39:04.319Z,97.18
2023-12-08T02:41:31.534Z,96.73
2023-12-08T02:43:58.410Z,96.15
2023-12-08T02:46:25.304Z,96.75
2023-12-08T02:48:54.839Z,96.32
2023-12-08T02:51:22.448Z,95.61
2023-12-08T02:53:49.333Z,95.96
2023-12-08T02:56:16.196Z,95.29
2023-12-08T02:58:43.065Z,95.40
2023-12-08T03:01:10.093Z,95.29
2023-12-08T03:03:37.129Z,95.41
2023-12-08T03:06:04.278Z,95.96
2023-12-08T03:08:31.239Z,95.12
2023-12-08T03:10:58.178Z,95.36
2023-12-08T03:13:25.414Z,95.51
2023-12-08T03:15:52.240Z,95.26
2023-12-08T03:18:19.153Z,95.16
2023-12-08T03:20:46.323Z,95.33
2023-12-08T03:23:13.179Z,95.70
2023-12-08T03:25:40.040Z,96.08
2023-12-08T03:28:06.909Z,96.17
2023-12-08T03:30:33.764Z,97.86
2023-12-08T03:33:00.746Z,97.46
2023-12-08T03:35:28.454Z,97.47
2023-12-08T03:37:56.005Z,98.24
2023-12-08T03:40:22.865Z,98.61
2023-12-08T03:42:49.651Z,98.59
2023-12-08T03:45:16.798Z,98.71
2023-12-08T03:47:43.708Z,98.53
2023-12-08T03:50:10.821Z,97.39
2023-12-08T03:52:37.647Z,97.01
2023-12-08T03:55:05.076Z,96.76
2023-12-08T03:57:31.865Z,95.85
2023-12-08T03:59:58.735Z,96.06
2023-12-08T04:02:25.719Z,96.80
2023-12-08T04:04:52.575Z,97.73
2023-12-08T04:07:19.475Z,99.45
2023-12-08T04:09:46.587Z,100.00
2023-12-08T04:12:13.457Z,100.00
2023-12-08T04:14:40.770Z,100.00
2023-12-08T04:17:08.146Z,100.00
2023-12-08T04:19:35.129Z,100.00
2023-12-08T04:22:02.004Z,100.00
2023-12-08T04:24:29.501Z,100.00
2023-12-08T04:26:56.378Z,99.48
2023-12-08T04:29:23.207Z,100.00
2023-12-08T04:31:49.973Z,100.00
2023-12-08T04:34:16.948Z,100.00
2023-12-08T04:36:43.876Z,100.00
2023-12-08T04:39:10.975Z,100.00
2023-12-08T04:41:37.871Z,100.00
2023-12-08T04:44:04.926Z,100.00
2023-12-08T04:46:31.801Z,100.00
2023-12-08T04:48:58.688Z,100.00
2023-12-08T04:51:25.702Z,100.00
2023-12-08T04:53:59.094Z,100.00
2023-12-08T04:56:26.122Z,100.00
2023-12-08T04:58:53.007Z,100.00
2023-12-08T05:01:19.883Z,100.00
2023-12-08T05:03:46.834Z,100.00
2023-12-08T05:06:13.879Z,100.00
2023-12-08T05:08:41.192Z,100.00
2023-12-08T05:11:08.805Z,100.00
2023-12-08T05:13:36.481Z,100.00
2023-12-08T05:16:03.464Z,100.00
2023-12-08T05:18:30.549Z,100.00
2023-12-08T05:20:57.647Z,100.00
2023-12-08T05:23:24.571Z,100.00
2023-12-08T05:25:51.419Z,100.00
2023-12-08T05:28:19.844Z,100.00
2023-12-08T05:30:46.744Z,100.00
2023-12-08T05:33:13.752Z,100.00
2023-12-08T05:35:40.675Z,100.00
2023-12-08T05:38:07.584Z,100.00
2023-12-08T05:40:34.502Z,100.00
2023-12-08T05:43:01.365Z,100.00
2023-12-08T05:45:28.283Z,100.00
2023-12-08T05:47:55.374Z,100.00
2023-12-08T05:50:22.261Z,100.00
2023-12-08T05:52:49.140Z,100.00
2023-12-08T05:55:16.072Z,100.00
2023-12-08T05:57:43.003Z,100.00
2023-12-08T06:00:11.509Z,100.00
2023-12-08T06:02:39.117Z,100.00
2023-12-08T06:05:06.657Z,100.00
2023-12-08T06:07:33.590Z,100.00
2023-12-08T06:10:00.492Z,100.00
2023-12-08T06:12:27.296Z,100.00
2023-12-08T06:14:54.919Z,100.00
2023-12-08T06:17:22.008Z,100.00
2023-12-08T06:19:49.790Z,100.00
2023-12-08T06:22:16.633Z,100.00
2023-12-08T06:24:43.632Z,100.00
2023-12-08T06:27:11.241Z,100.00
2023-12-08T06:29:38.402Z,100.00
2023-12-08T06:32:06.515Z,100.00
2023-12-08T06:34:33.902Z,100.00
2023-12-08T06:37:01.072Z,100.00
2023-12-08T06:39:28.168Z,100.00
2023-12-08T06:41:55.069Z,100.00
2023-12-08T06:44:21.986Z,100.00
2023-12-08T06:46:49.182Z,100.00
2023-12-08T06:49:16.245Z,100.00
2023-12-08T06:51:43.526Z,100.00
2023-12-08T06:54:11.962Z,100.00
2023-12-08T06:56:45.824Z,100.00
2023-12-08T06:59:12.851Z,100.00
2023-12-08T07:01:39.671Z,100.00
2023-12-08T07:04:06.773Z,100.00
2023-12-08T07:06:34.179Z,100.00
2023-12-08T07:09:02.153Z,100.00
2023-12-08T07:11:28.962Z,100.00
2023-12-08T07:13:56.992Z,100.00
2023-12-08T07:16:24.005Z,100.00
2023-12-08T07:18:50.886Z,100.00
2023-12-08T07:21:18.920Z,100.00
2023-12-08T07:23:45.767Z,100.00
2023-12-08T07:26:12.607Z,100.00
2023-12-08T07:28:39.450Z,100.00
2023-12-08T07:31:06.647Z,100.00
2023-12-08T07:33:33.788Z,100.00
2023-12-08T07:36:00.699Z,100.00
2023-12-08T07:38:27.695Z,100.00
2023-12-08T07:40:54.589Z,100.00
2023-12-08T07:43:21.507Z,100.00
2023-12-08T07:45:48.401Z,100.00
2023-12-08T07:48:15.394Z,100.00
2023-12-08T07:50:42.383Z,100.00
2023-12-08T07:53:09.313Z,100.00
2023-12-08T07:55:36.291Z,100.00
2023-12-08T07:58:03.146Z,100.00
2023-12-08T08:00:31.590Z,100.00
2023-12-08T08:02:58.537Z,100.00
2023-12-08T08:05:26.179Z,100.00
2023-12-08T08:07:52.977Z,100.00
2023-12-08T08:10:19.775Z,100.00
2023-12-08T08:12:46.631Z,100.00
2023-12-08T08:15:13.476Z,100.00
2023-12-08T08:17:40.389Z,100.00
2023-12-08T08:20:08.427Z,100.00
2023-12-08T08:22:36.064Z,100.00
2023-12-08T08:25:03.608Z,100.00
2023-12-08T08:27:31.205Z,100.00
2023-12-08T08:29:58.882Z,100.00
2023-12-08T08:32:27.146Z,100.00
2023-12-08T08:34:57.006Z,100.00
2023-12-08T08:37:25.975Z,100.00
2023-12-08T08:39:53.179Z,100.00
2023-12-08T08:42:20.910Z,100.00
2023-12-08T08:44:47.779Z,100.00
2023-12-08T08:47:14.854Z,100.00
2023-12-08T08:49:42.118Z,100.00
2023-12-08T08:52:09.132Z,100.00
2023-12-08T08:54:36.352Z,100.00
2023-12-08T08:57:06.022Z,100.00
2023-12-08T08:59:33.140Z,100.00
2023-12-08T09:02:00.110Z,100.00
2023-12-08T09:04:27.216Z,100.00
2023-12-08T09:06:54.209Z,100.00
2023-12-08T09:09:21.196Z,100.00
2023-12-08T09:11:48.206Z,100.00
2023-12-08T09:14:16.103Z,100.00
2023-12-08T09:16:43.049Z,100.00
2023-12-08T09:19:10.054Z,100.00
2023-12-08T09:21:45.788Z,100.00
2023-12-08T09:24:16.229Z,100.00
2023-12-08T09:26:43.196Z,100.00
2023-12-08T09:29:10.646Z,100.00
2023-12-08T09:31:37.533Z,100.00
2023-12-08T09:34:04.540Z,100.00
2023-12-08T09:36:32.245Z,100.00
2023-12-08T09:38:59.103Z,100.00
2023-12-08T09:41:28.398Z,100.00
2023-12-08T09:44:06.450Z,100.00
2023-12-08T09:46:35.769Z,100.00
2023-12-08T09:49:07.891Z,100.00
2023-12-08T09:51:34.920Z,100.00
2023-12-08T09:54:01.813Z,100.00
2023-12-08T09:56:29.972Z,100.00
2023-12-08T09:58:57.229Z,100.00
2023-12-08T10:01:24.140Z,100.00
2023-12-08T10:03:51.263Z,100.00
2023-12-08T10:06:22.157Z,100.00
2023-12-08T10:08:49.107Z,100.00
2023-12-08T10:11:16.418Z,100.00
2023-12-08T10:13:44.292Z,100.00
2023-12-08T10:16:11.340Z,100.00
2023-12-08T10:18:38.670Z,100.00
2023-12-08T10:21:20.478Z,100.00
2023-12-08T10:23:48.192Z,100.00
2023-12-08T10:26:17.631Z,100.00
2023-12-08T10:28:44.966Z,100.00
2023-12-08T10:31:11.931Z,100.00
2023-12-08T10:33:42.506Z,100.00
2023-12-08T10:36:10.273Z,100.00
2023-12-08T10:38:37.494Z,100.00
2023-12-08T10:41:06.150Z,100.00
2023-12-08T10:43:33.022Z,100.00
2023-12-08T10:46:01.167Z,100.00
2023-12-08T10:48:28.289Z,100.00
2023-12-08T10:50:55.292Z,100.00
2023-12-08T10:53:22.704Z,100.00
2023-12-08T10:56:07.845Z,100.00
2023-12-08T10:58:37.050Z,100.00
2023-12-08T11:01:15.903Z,100.00
2023-12-08T11:03:53.958Z,100.00
2023-12-08T11:06:35.829Z,100.00
2023-12-08T11:09:08.356Z,100.00
2023-12-08T11:11:43.607Z,100.00
2023-12-08T11:14:18.999Z,100.00
2023-12-08T11:16:58.912Z,100.00
2023-12-08T11:19:31.686Z,100.00
2023-12-08T11:22:00.535Z,100.00
2023-12-08T11:24:30.057Z,100.00
2023-12-08T11:27:19.622Z,100.00
2023-12-08T11:30:11.638Z,100.00
2023-12-08T11:33:13.075Z,100.00
2023-12-08T11:35:40.373Z,100.00
2023-12-08T11:38:09.637Z,100.00
2023-12-08T11:40:55.941Z,100.00
2023-12-08T11:43:22.805Z,100.00
2023-12-08T11:45:51.141Z,100.00
2023-12-08T11:48:18.047Z,100.00
2023-12-08T11:50:47.645Z,100.00
2023-12-08T11:53:14.723Z,100.00
2023-12-08T11:55:41.670Z,100.00
2023-12-08T11:58:12.425Z,100.00
2023-12-08T12:00:40.847Z,100.00
2023-12-08T12:03:09.955Z,100.00
2023-12-08T12:05:37.578Z,100.00
2023-12-08T12:08:08.123Z,100.00
2023-12-08T12:10:35.959Z,100.00
2023-12-08T12:13:14.372Z,100.00
2023-12-08T12:15:43.209Z,100.00
2023-12-08T12:18:12.545Z,100.00
2023-12-08T12:20:40.109Z,100.00
2023-12-08T12:23:07.938Z,100.00
2023-12-08T12:25:35.086Z,100.00
2023-12-08T12:28:01.960Z,100.00
2023-12-08T12:30:30.082Z,100.00
2023-12-08T12:32:58.581Z,100.00
2023-12-08T12:35:28.405Z,100.00
2023-12-08T12:37:55.901Z,100.00
2023-12-08T12:40:25.392Z,100.00
2023-12-08T12:42:52.278Z,100.00
2023-12-08T12:45:31.940Z,100.00
2023-12-08T12:48:08.752Z,100.00
2023-12-08T12:50:47.755Z,100.00
2023-12-08T12:53:17.834Z,100.00
2023-12-08T12:55:47.162Z,100.00
2023-12-08T12:58:25.134Z,100.00
2023-12-08T13:00:53.320Z,100.00
2023-12-08T13:03:24.169Z,100.00
2023-12-08T13:05:58.067Z,100.00
2023-12-08T13:08:25.498Z,100.00
2023-12-08T13:10:55.127Z,100.00
2023-12-08T13:13:22.444Z,100.00
2023-12-08T13:15:49.994Z,100.00
2023-12-08T13:18:17.537Z,100.00
2023-12-08T13:20:44.819Z,100.00
2023-12-08T13:23:13.454Z,100.00
2023-12-08T13:25:40.333Z,100.00
2023-12-08T13:28:09.466Z,100.00
2023-12-08T13:30:37.436Z,100.00
2023-12-08T13:33:07.224Z,100.00
2023-12-08T13:35:36.652Z,100.00
2023-12-08T13:38:03.654Z,100.00
2023-12-08T13:40:32.024Z,100.00
2023-12-08T13:42:58.987Z,100.00
2023-12-08T13:45:26.748Z,100.00
2023-12-08T13:47:53.921Z,100.00
2023-12-08T13:50:20.940Z,100.00
2023-12-08T13:52:47.748Z,100.00
2023-12-08T13:55:15.139Z,100.00
2023-12-08T13:57:42.080Z,100.00
2023-12-08T14:00:10.029Z,100.00
2023-12-08T14:02:37.828Z,100.00
2023-12-08T14:05:48.203Z,100.00
2023-12-08T14:08:16.900Z,100.00
2023-12-08T14:10:44.163Z,100.00
2023-12-08T14:13:10.986Z,100.00
2023-12-08T14:15:39.329Z,100.00
2023-12-08T14:18:08.133Z,100.00
2023-12-08T14:20:40.304Z,100.00
2023-12-08T14:23:07.883Z,100.00
2023-12-08T14:25:35.397Z,100.00
2023-12-08T14:28:02.224Z,100.00
2023-12-08T14:30:29.094Z,100.00
2023-12-08T14:32:56.711Z,100.00
2023-12-08T14:35:30.508Z,100.00
2023-12-08T14:37:58.946Z,100.00
2023-12-08T14:40:28.321Z,100.00
2023-12-08T14:43:00.987Z,100.00
2023-12-08T14:45:29.083Z,100.00
2023-12-08T14:48:09.101Z,100.00
2023-12-08T14:50:37.251Z,100.00
2023-12-08T14:53:23.830Z,100.00
2023-12-08T14:55:59.244Z,100.00
2023-12-08T14:58:34.382Z,100.00
2023-12-08T15:01:01.277Z,100.00
2023-12-08T15:03:33.535Z,100.00
2023-12-08T15:06:08.862Z,100.00
2023-12-08T15:08:36.011Z,100.00
2023-12-08T15:11:03.276Z,100.00
2023-12-08T15:13:59.241Z,100.00
2023-12-08T15:16:26.101Z,100.00
2023-12-08T15:19:11.448Z,100.00
2023-12-08T15:21:40.337Z,100.00
2023-12-08T15:24:07.545Z,100.00
2023-12-08T15:26:34.384Z,100.00
2023-12-08T15:29:01.508Z,100.00
2023-12-08T15:31:30.369Z,100.00
2023-12-08T15:33:57.392Z,100.00
2023-12-08T15:36:24.370Z,100.00
2023-12-08T15:38:54.132Z,100.00
2023-12-08T15:41:21.285Z,100.00
2023-12-08T15:43:48.478Z,100.00
2023-12-08T15:46:16.370Z,100.00
2023-12-08T15:49:07.613Z,100.00
2023-12-08T15:51:44.921Z,100.00
2023-12-08T15:54:17.820Z,100.00
2023-12-08T15:56:45.417Z,100.00
2023-12-08T15:59:12.467Z,100.00
2023-12-08T16:01:39.753Z,100.00
2023-12-08T16:04:18.624Z,100.00
2023-12-08T16:06:45.443Z,100.00
2023-12-08T16:09:12.387Z,100.00
2023-12-08T16:11:39.326Z,100.00
2023-12-08T16:14:06.485Z,100.00
2023-12-08T16:16:33.409Z,100.00
2023-12-08T16:19:00.575Z,100.00
2023-12-08T16:21:29.706Z,100.00
2023-12-08T16:23:59.145Z,100.00
2023-12-08T16:26:27.847Z,100.00
2023-12-08T16:28:55.327Z,100.00
2023-12-08T16:31:23.931Z,100.00
2023-12-08T16:33:51.168Z,100.00
2023-12-08T16:36:23.582Z,100.00
2023-12-08T16:38:50.789Z,100.00
2023-12-08T16:41:17.704Z,100.00
2023-12-08T16:43:44.656Z,100.00
2023-12-08T16:46:11.564Z,100.00
2023-12-08T16:48:38.586Z,100.00
2023-12-08T16:51:23.702Z,100.00
2023-12-08T16:53:50.854Z,100.00
2023-12-08T16:56:18.110Z,100.00
2023-12-08T16:58:48.065Z,100.00
2023-12-08T17:01:23.005Z,100.00
2023-12-08T17:04:00.082Z,100.00
2023-12-08T17:06:30.688Z,100.00
2023-12-08T17:08:57.660Z,100.00
2023-12-08T17:11:24.719Z,100.00
2023-12-08T17:13:51.891Z,100.00
2023-12-08T17:16:18.798Z,100.00
2023-12-08T17:18:45.940Z,100.00
2023-12-08T17:21:13.030Z,100.00
2023-12-08T17:23:39.998Z,100.00
2023-12-08T17:26:06.877Z,100.00
2023-12-08T17:28:33.700Z,100.00
2023-12-08T17:31:00.911Z,100.00
2023-12-08T17:33:27.996Z,100.00
2023-12-08T17:35:55.049Z,100.00
2023-12-08T17:38:22.176Z,100.00
2023-12-08T17:40:51.860Z,100.00
2023-12-08T17:43:18.716Z,100.00
2023-12-08T17:45:45.912Z,100.00
2023-12-08T17:48:12.881Z,100.00
2023-12-08T17:50:39.900Z,100.00
2023-12-08T17:53:06.757Z,100.00
2023-12-08T17:55:33.770Z,100.00
2023-12-08T17:58:00.636Z,100.00
2023-12-08T18:00:27.594Z,100.00
2023-12-08T18:02:56.255Z,100.00
2023-12-08T18:05:23.733Z,100.00
2023-12-08T18:07:50.786Z,100.00
2023-12-08T18:10:17.848Z,100.00
2023-12-08T18:12:44.656Z,100.00
2023-12-08T18:15:12.312Z,100.00
2023-12-08T18:17:40.994Z,100.00
2023-12-08T18:20:09.071Z,100.00
2023-12-08T18:22:37.184Z,100.00
2023-12-08T18:25:04.345Z,100.00
2023-12-08T18:27:43.280Z,100.00
2023-12-08T18:30:19.737Z,100.00
2023-12-08T18:32:47.053Z,100.00
2023-12-08T18:35:13.960Z,100.00
2023-12-08T18:37:40.826Z,100.00
2023-12-08T18:40:08.819Z,100.00
2023-12-08T18:42:35.798Z,100.00
2023-12-08T18:45:03.137Z,100.00
2023-12-08T18:47:29.975Z,100.00
2023-12-08T18:49:56.899Z,100.00
2023-12-08T18:52:24.019Z,100.00
2023-12-08T18:54:50.905Z,100.00
2023-12-08T18:57:17.741Z,100.00
2023-12-08T18:59:44.746Z,100.00
2023-12-08T19:02:11.646Z,100.00
2023-12-08T19:04:38.659Z,100.00
2023-12-08T19:07:06.809Z,100.00
2023-12-08T19:09:33.844Z,100.00
2023-12-08T19:12:04.036Z,100.00
2023-12-08T19:14:32.059Z,100.00
2023-12-08T19:16:58.867Z,100.00
2023-12-08T19:19:26.185Z,100.00
2023-12-08T19:21:53.775Z,100.00
2023-12-08T19:24:21.084Z,100.00
2023-12-08T19:26:48.325Z,100.00
2023-12-08T19:29:17.146Z,100.00
2023-12-08T19:31:45.440Z,100.00
2023-12-08T19:34:12.350Z,100.00
2023-12-08T19:36:39.325Z,100.00
2023-12-08T19:39:08.373Z,100.00
2023-12-08T19:41:35.353Z,100.00
2023-12-08T19:44:02.337Z,100.00
2023-12-08T19:46:29.214Z,100.00
2023-12-08T19:48:56.171Z,100.00
2023-12-08T19:51:23.168Z,100.00
2023-12-08T19:53:49.999Z,100.00
2023-12-08T19:56:17.257Z,100.00
2023-12-08T19:58:44.149Z,100.00
2023-12-08T20:01:11.081Z,100.00
2023-12-08T20:03:38.104Z,100.00
2023-12-08T20:06:05.442Z,100.00
2023-12-08T20:08:32.371Z,100.00
2023-12-08T20:10:59.657Z,100.00
2023-12-08T20:13:26.599Z,100.00
2023-12-08T20:15:53.497Z,100.00
2023-12-08T20:18:21.235Z,100.00
2023-12-08T20:20:48.286Z,100.00
2023-12-08T20:23:15.270Z,100.00
2023-12-08T20:25:42.095Z,100.00
2023-12-08T20:28:09.520Z,100.00
2023-12-08T20:30:36.871Z,100.00
2023-12-08T20:33:04.122Z,100.00
2023-12-08T20:35:31.158Z,100.00
2023-12-08T20:37:58.170Z,100.00
2023-12-08T20:40:24.984Z,100.00
2023-12-08T20:42:52.068Z,100.00
2023-12-08T20:45:18.900Z,100.00
2023-12-08T20:47:46.781Z,100.00
2023-12-08T20:50:13.841Z,100.00
2023-12-08T20:52:40.693Z,100.00
2023-12-08T20:55:08.005Z,100.00
2023-12-08T20:57:34.990Z,100.00
2023-12-08T21:00:02.119Z,100.00
2023-12-08T21:02:29.221Z,100.00
2023-12-08T21:04:55.999Z,100.00
2023-12-08T21:07:23.688Z,100.00
2023-12-08T21:09:50.839Z,100.00
2023-12-08T21:12:18.465Z,100.00
2023-12-08T21:14:45.740Z,100.00
2023-12-08T21:17:13.707Z,100.00
2023-12-08T21:19:40.744Z,100.00
2023-12-08T21:22:07.667Z,100.00
2023-12-08T21:24:34.534Z,100.00
2023-12-08T21:27:01.493Z,100.00
2023-12-08T21:29:28.339Z,100.00
2023-12-08T21:31:55.174Z,100.00
2023-12-08T21:34:22.048Z,100.00
2023-12-08T21:36:49.192Z,100.00
2023-12-08T21:39:16.053Z,100.00
2023-12-08T21:41:42.960Z,100.00
2023-12-08T21:44:10.179Z,100.00
2023-12-08T21:46:37.578Z,100.00
2023-12-08T21:49:04.672Z,100.00
2023-12-08T21:51:32.037Z,100.00
2023-12-08T21:53:59.039Z,100.00
2023-12-08T21:56:29.902Z,100.00
2023-12-08T21:59:00.157Z,100.00
2023-12-08T22:01:27.514Z,100.00
2023-12-08T22:03:57.627Z,100.00
2023-12-08T22:06:25.345Z,100.00
2023-12-08T22:08:52.502Z,100.00
2023-12-08T22:11:19.955Z,100.00
2023-12-08T22:13:47.583Z,100.00
2023-12-08T22:16:14.810Z,100.00
2023-12-08T22:18:42.161Z,100.00
2023-12-08T22:21:11.145Z,100.00
2023-12-08T22:23:38.692Z,100.00
2023-12-08T22:26:05.610Z,100.00
2023-12-08T22:28:32.933Z,100.00
2023-12-08T22:30:59.819Z,100.00
2023-12-08T22:33:27.336Z,100.00
2023-12-08T22:35:55.030Z,100.00
2023-12-08T22:38:22.059Z,100.00
2023-12-08T22:40:50.159Z,100.00
2023-12-08T22:43:17.116Z,100.00
2023-12-08T22:45:43.930Z,100.00
2023-12-08T22:48:10.922Z,100.00
2023-12-08T22:50:43.982Z,100.00
2023-12-08T22:53:16.548Z,100.00
2023-12-08T22:55:44.349Z,100.00
2023-12-08T22:58:11.499Z,100.00
2023-12-08T23:00:38.754Z,100.00
2023-12-08T23:03:06.027Z,100.00
2023-12-08T23:05:34.166Z,100.00
2023-12-08T23:08:01.354Z,100.00
2023-12-08T23:10:28.146Z,100.00
2023-12-08T23:12:54.928Z,100.00
2023-12-08T23:15:25.527Z,100.00
2023-12-08T23:17:54.692Z,100.00
2023-12-08T23:20:22.228Z,100.00
2023-12-08T23:22:50.070Z,100.00
2023-12-08T23:25:16.911Z,100.00
2023-12-08T23:27:46.125Z,100.00
2023-12-08T23:30:13.431Z,100.00
2023-12-08T23:32:40.382Z,100.00
2023-12-08T23:35:08.899Z,100.00
2023-12-08T23:37:35.870Z,100.00
2023-12-08T23:40:02.901Z,100.00
2023-12-08T23:42:30.953Z,100.00
2023-12-08T23:44:58.059Z,100.00
2023-12-08T23:47:24.900Z,100.00
2023-12-08T23:49:51.789Z,100.00
2023-12-08T23:52:18.638Z,100.00
2023-12-08T23:54:46.058Z,100.00
2023-12-08T23:57:13.831Z,100.00
2023-12-08T23:59:41.600Z,100.00
